sensor_id;sensor_type;location;lat;lon;timestamp;pressure;altitude;pressure_sealevel;temperature;humidity
19520;BME280;9904;52.246;20.898;2024-03-23T00:55:34;99255.22;;;8.21;100.00
19520;BME280;9904;52.246;20.898;2024-03-23T00:57:59;99251.34;;;8.24;100.00
19520;BME280;9904;52.246;20.898;2024-03-23T01:00:25;99255.66;;;8.08;100.00
19520;BME280;9904;52.246;20.898;2024-03-23T01:02:50;99237.75;;;7.99;100.00
19520;BME280;9904;52.246;20.898;2024-03-23T01:05:16;99248.91;;;8.04;100.00
19520;BME280;9904;52.246;20.898;2024-03-23T01:07:42;99255.38;;;7.85;100.00
19520;BME280;9904;52.246;20.898;2024-03-23T01:10:07;99249.56;;;7.72;100.00
19520;BME280;9904;52.246;20.898;2024-03-23T01:12:33;99240.47;;;7.73;100.00
19520;BME280;9904;52.246;20.898;2024-03-23T01:14:58;99239.03;;;7.87;100.00
19520;BME280;9904;52.246;20.898;2024-03-23T01:17:24;99234.16;;;7.90;100.00
19520;BME280;9904;52.246;20.898;2024-03-23T01:19:49;99231.81;;;7.87;100.00
19520;BME280;9904;52.246;20.898;2024-03-23T01:22:15;99232.69;;;7.96;100.00
19520;BME280;9904;52.246;20.898;2024-03-23T01:24:41;99245.28;;;7.87;100.00
19520;BME280;9904;52.246;20.898;2024-03-23T01:27:06;99234.41;;;7.71;100.00
19520;BME280;9904;52.246;20.898;2024-03-23T01:29:32;99236.41;;;7.69;100.00
19520;BME280;9904;52.246;20.898;2024-03-23T01:31:58;99236.25;;;7.70;100.00
19520;BME280;9904;52.246;20.898;2024-03-23T01:34:23;99240.41;;;7.65;100.00
19520;BME280;9904;52.246;20.898;2024-03-23T01:36:50;99247.03;;;7.70;100.00
19520;BME280;9904;52.246;20.898;2024-03-23T01:39:16;99239.25;;;7.67;100.00
19520;BME280;9904;52.246;20.898;2024-03-23T01:41:42;99238.19;;;7.60;100.00
19520;BME280;9904;52.246;20.898;2024-03-23T01:44:08;99238.25;;;7.68;100.00
19520;BME280;9904;52.246;20.898;2024-03-23T01:46:37;99235.56;;;7.68;100.00
19520;BME280;9904;52.246;20.898;2024-03-23T01:49:04;99211.63;;;7.65;100.00
19520;BME280;9904;52.246;20.898;2024-03-23T01:51:32;99213.41;;;7.83;100.00
19520;BME280;9904;52.246;20.898;2024-03-23T01:53:58;99217.41;;;7.78;100.00
19520;BME280;9904;52.246;20.898;2024-03-23T01:56:37;99228.31;;;7.69;100.00
19520;BME280;9904;52.246;20.898;2024-03-23T01:59:06;99222.41;;;7.65;100.00
19520;BME280;9904;52.246;20.898;2024-03-23T02:01:32;99223.25;;;7.66;100.00
19520;BME280;9904;52.246;20.898;2024-03-23T02:04:01;99201.19;;;7.62;100.00
19520;BME280;9904;52.246;20.898;2024-03-23T02:06:27;99210.78;;;7.65;100.00
19520;BME280;9904;52.246;20.898;2024-03-23T02:08:54;99218.47;;;7.59;100.00
19520;BME280;9904;52.246;20.898;2024-03-23T02:11:20;99215.78;;;7.59;100.00
19520;BME280;9904;52.246;20.898;2024-03-23T02:13:45;99205.34;;;7.56;100.00
19520;BME280;9904;52.246;20.898;2024-03-23T02:16:11;99211.56;;;7.57;100.00
19520;BME280;9904;52.246;20.898;2024-03-23T02:18:37;99213.44;;;7.56;100.00
19520;BME280;9904;52.246;20.898;2024-03-23T02:21:03;99207.03;;;7.57;100.00
19520;BME280;9904;52.246;20.898;2024-03-23T02:23:28;99207.34;;;7.54;100.00
19520;BME280;9904;52.246;20.898;2024-03-23T02:25:54;99202.31;;;7.59;100.00
19520;BME280;9904;52.246;20.898;2024-03-23T02:28:20;99201.72;;;7.66;100.00
19520;BME280;9904;52.246;20.898;2024-03-23T02:30:45;99196.31;;;7.66;100.00
19520;BME280;9904;52.246;20.898;2024-03-23T02:33:11;99199.03;;;7.66;100.00
19520;BME280;9904;52.246;20.898;2024-03-23T02:35:37;99201.50;;;7.59;100.00
19520;BME280;9904;52.246;20.898;2024-03-23T02:38:02;99190.72;;;7.59;100.00
19520;BME280;9904;52.246;20.898;2024-03-23T02:40:28;99199.50;;;7.61;100.00
19520;BME280;9904;52.246;20.898;2024-03-23T02:42:54;99191.94;;;7.65;100.00
19520;BME280;9904;52.246;20.898;2024-03-23T02:45:20;99190.25;;;7.64;100.00
19520;BME280;9904;52.246;20.898;2024-03-23T02:47:45;99187.38;;;7.65;100.00
19520;BME280;9904;52.246;20.898;2024-03-23T02:50:11;99177.13;;;7.69;100.00
19520;BME280;9904;52.246;20.898;2024-03-23T02:52:37;99174.13;;;7.72;100.00
19520;BME280;9904;52.246;20.898;2024-03-23T02:55:03;99164.53;;;7.69;100.00
19520;BME280;9904;52.246;20.898;2024-03-23T02:57:29;99162.16;;;7.66;100.00
19520;BME280;9904;52.246;20.898;2024-03-23T02:59:55;99169.56;;;7.72;100.00
19520;BME280;9904;52.246;20.898;2024-03-23T03:02:20;99164.66;;;7.68;100.00
19520;BME280;9904;52.246;20.898;2024-03-23T03:04:47;99168.91;;;7.70;100.00
19520;BME280;9904;52.246;20.898;2024-03-23T03:07:13;99157.97;;;7.72;100.00
19520;BME280;9904;52.246;20.898;2024-03-23T03:09:39;99151.19;;;7.68;100.00
19520;BME280;9904;52.246;20.898;2024-03-23T03:12:05;99143.28;;;7.66;100.00
19520;BME280;9904;52.246;20.898;2024-03-23T03:14:31;99160.50;;;7.73;100.00
19520;BME280;9904;52.246;20.898;2024-03-23T03:16:56;99153.75;;;7.69;100.00
19520;BME280;9904;52.246;20.898;2024-03-23T03:19:22;99152.59;;;7.72;100.00
19520;BME280;9904;52.246;20.898;2024-03-23T03:21:47;99162.34;;;7.73;100.00
19520;BME280;9904;52.246;20.898;2024-03-23T03:24:13;99160.13;;;7.68;100.00
19520;BME280;9904;52.246;20.898;2024-03-23T03:26:39;99150.88;;;7.71;100.00
19520;BME280;9904;52.246;20.898;2024-03-23T03:29:04;99161.88;;;7.77;100.00
19520;BME280;9904;52.246;20.898;2024-03-23T03:31:30;99163.03;;;7.75;100.00
19520;BME280;9904;52.246;20.898;2024-03-23T03:33:56;99155.44;;;7.70;100.00
19520;BME280;9904;52.246;20.898;2024-03-23T03:36:22;99162.72;;;7.78;100.00
19520;BME280;9904;52.246;20.898;2024-03-23T03:38:47;99161.34;;;7.74;100.00
19520;BME280;9904;52.246;20.898;2024-03-23T03:41:13;99159.50;;;7.74;100.00
19520;BME280;9904;52.246;20.898;2024-03-23T03:43:38;99165.41;;;7.78;100.00
19520;BME280;9904;52.246;20.898;2024-03-23T03:46:04;99162.72;;;7.78;100.00
19520;BME280;9904;52.246;20.898;2024-03-23T03:48:30;99155.47;;;7.78;100.00
19520;BME280;9904;52.246;20.898;2024-03-23T03:50:55;99159.19;;;7.77;100.00
19520;BME280;9904;52.246;20.898;2024-03-23T03:53:21;99158.16;;;7.78;100.00
19520;BME280;9904;52.246;20.898;2024-03-23T03:55:47;99150.25;;;7.77;100.00
19520;BME280;9904;52.246;20.898;2024-03-23T03:58:12;99147.53;;;7.77;100.00
19520;BME280;9904;52.246;20.898;2024-03-23T04:00:38;99154.78;;;7.76;100.00
19520;BME280;9904;52.246;20.898;2024-03-23T04:03:04;99146.38;;;7.80;100.00
19520;BME280;9904;52.246;20.898;2024-03-23T04:05:29;99138.78;;;7.75;100.00
19520;BME280;9904;52.246;20.898;2024-03-23T04:07:55;99140.47;;;7.76;100.00
19520;BME280;9904;52.246;20.898;2024-03-23T04:10:21;99145.53;;;7.79;100.00
19520;BME280;9904;52.246;20.898;2024-03-23T04:12:47;99138.97;;;7.82;100.00
19520;BME280;9904;52.246;20.898;2024-03-23T04:15:12;99146.59;;;7.86;100.00
19520;BME280;9904;52.246;20.898;2024-03-23T04:17:39;99137.28;;;7.81;100.00
19520;BME280;9904;52.246;20.898;2024-03-23T04:20:05;99133.78;;;7.80;100.00
19520;BME280;9904;52.246;20.898;2024-03-23T04:22:34;99122.31;;;7.78;100.00
19520;BME280;9904;52.246;20.898;2024-03-23T04:25:00;99120.13;;;7.82;100.00
19520;BME280;9904;52.246;20.898;2024-03-23T04:27:35;99125.88;;;7.87;100.00
19520;BME280;9904;52.246;20.898;2024-03-23T04:30:01;99111.44;;;8.04;100.00
19520;BME280;9904;52.246;20.898;2024-03-23T04:32:28;99116.38;;;8.17;100.00
19520;BME280;9904;52.246;20.898;2024-03-23T04:34:54;99104.22;;;8.13;100.00
19520;BME280;9904;52.246;20.898;2024-03-23T04:37:20;99110.63;;;8.12;100.00
19520;BME280;9904;52.246;20.898;2024-03-23T04:39:46;99118.19;;;8.08;100.00
19520;BME280;9904;52.246;20.898;2024-03-23T04:42:14;99116.81;;;7.96;100.00
19520;BME280;9904;52.246;20.898;2024-03-23T04:44:40;99110.28;;;8.07;100.00
19520;BME280;9904;52.246;20.898;2024-03-23T04:47:06;99102.69;;;8.11;100.00
19520;BME280;9904;52.246;20.898;2024-03-23T04:49:31;99100.34;;;8.16;100.00
19520;BME280;9904;52.246;20.898;2024-03-23T04:51:57;99091.59;;;8.14;100.00
19520;BME280;9904;52.246;20.898;2024-03-23T04:54:22;99081.66;;;8.14;100.00
19520;BME280;9904;52.246;20.898;2024-03-23T04:56:48;99083.03;;;8.18;100.00
19520;BME280;9904;52.246;20.898;2024-03-23T04:59:13;99080.34;;;8.27;100.00
19520;BME280;9904;52.246;20.898;2024-03-23T05:01:39;99086.56;;;8.19;100.00
19520;BME280;9904;52.246;20.898;2024-03-23T05:04:07;99086.56;;;8.19;100.00
19520;BME280;9904;52.246;20.898;2024-03-23T05:06:33;99088.44;;;8.27;100.00
19520;BME280;9904;52.246;20.898;2024-03-23T05:09:00;99099.34;;;8.25;100.00
19520;BME280;9904;52.246;20.898;2024-03-23T05:11:31;99091.44;;;8.23;100.00
19520;BME280;9904;52.246;20.898;2024-03-23T05:13:57;99093.81;;;8.27;100.00
19520;BME280;9904;52.246;20.898;2024-03-23T05:16:23;99100.22;;;8.25;100.00
19520;BME280;9904;52.246;20.898;2024-03-23T05:18:48;99095.63;;;8.18;100.00
19520;BME280;9904;52.246;20.898;2024-03-23T05:21:14;99095.47;;;8.11;100.00
19520;BME280;9904;52.246;20.898;2024-03-23T05:23:39;99087.41;;;8.28;100.00
19520;BME280;9904;52.246;20.898;2024-03-23T05:26:05;99090.59;;;8.31;100.00
19520;BME280;9904;52.246;20.898;2024-03-23T05:28:31;99091.63;;;8.30;100.00
19520;BME280;9904;52.246;20.898;2024-03-23T05:30:57;99083.69;;;8.20;100.00
19520;BME280;9904;52.246;20.898;2024-03-23T05:33:22;99079.84;;;8.23;100.00
19520;BME280;9904;52.246;20.898;2024-03-23T05:35:56;99079.97;;;8.21;100.00
19520;BME280;9904;52.246;20.898;2024-03-23T05:38:22;99078.81;;;8.32;100.00
19520;BME280;9904;52.246;20.898;2024-03-23T05:40:58;99079.63;;;8.16;100.00
19520;BME280;9904;52.246;20.898;2024-03-23T05:43:24;99074.25;;;8.24;100.00
19520;BME280;9904;52.246;20.898;2024-03-23T05:45:57;99076.28;;;8.31;100.00
19520;BME280;9904;52.246;20.898;2024-03-23T05:48:23;99068.41;;;8.37;100.00
19520;BME280;9904;52.246;20.898;2024-03-23T05:50:49;99060.81;;;8.33;100.00
19520;BME280;9904;52.246;20.898;2024-03-23T05:53:16;99073.78;;;8.37;100.00
19520;BME280;9904;52.246;20.898;2024-03-23T05:55:42;99065.00;;;8.35;100.00
19520;BME280;9904;52.246;20.898;2024-03-23T05:58:08;99065.34;;;8.40;100.00
19520;BME280;9904;52.246;20.898;2024-03-23T06:00:33;99071.59;;;8.33;100.00
19520;BME280;9904;52.246;20.898;2024-03-23T06:02:59;99053.88;;;8.38;100.00
19520;BME280;9904;52.246;20.898;2024-03-23T06:05:25;99056.75;;;8.37;100.00
19520;BME280;9904;52.246;20.898;2024-03-23T06:07:50;99065.34;;;8.40;100.00
19520;BME280;9904;52.246;20.898;2024-03-23T06:10:16;99061.63;;;8.41;100.00
19520;BME280;9904;52.246;20.898;2024-03-23T06:12:42;99051.19;;;8.38;100.00
19520;BME280;9904;52.246;20.898;2024-03-23T06:15:08;99051.19;;;8.38;100.00
19520;BME280;9904;52.246;20.898;2024-03-23T06:17:39;99069.22;;;8.46;100.00
19520;BME280;9904;52.246;20.898;2024-03-23T06:20:05;99065.72;;;8.54;100.00
19520;BME280;9904;52.246;20.898;2024-03-23T06:22:33;99063.53;;;8.57;100.00
19520;BME280;9904;52.246;20.898;2024-03-23T06:24:59;99061.84;;;8.48;100.00
19520;BME280;9904;52.246;20.898;2024-03-23T06:27:25;99057.97;;;8.59;100.00
19520;BME280;9904;52.246;20.898;2024-03-23T06:29:50;99048.38;;;8.56;100.00
19520;BME280;9904;52.246;20.898;2024-03-23T06:32:17;99059.00;;;8.58;100.00
19520;BME280;9904;52.246;20.898;2024-03-23T06:34:42;99055.78;;;8.54;100.00
19520;BME280;9904;52.246;20.898;2024-03-23T06:37:08;99045.81;;;8.63;100.00
19520;BME280;9904;52.246;20.898;2024-03-23T06:39:36;99045.66;;;8.65;100.00
19520;BME280;9904;52.246;20.898;2024-03-23T06:42:02;99046.84;;;8.70;100.00
19520;BME280;9904;52.246;20.898;2024-03-23T06:44:28;99048.03;;;8.60;100.00
19520;BME280;9904;52.246;20.898;2024-03-23T06:46:54;99034.34;;;8.61;100.00
19520;BME280;9904;52.246;20.898;2024-03-23T06:49:20;99035.53;;;8.67;100.00
19520;BME280;9904;52.246;20.898;2024-03-23T06:51:46;99018.84;;;8.71;100.00
19520;BME280;9904;52.246;20.898;2024-03-23T06:54:12;99015.81;;;8.66;100.00
19520;BME280;9904;52.246;20.898;2024-03-23T06:56:38;99016.34;;;8.62;100.00
19520;BME280;9904;52.246;20.898;2024-03-23T06:59:03;99012.25;;;8.74;100.00
19520;BME280;9904;52.246;20.898;2024-03-23T07:01:29;99019.03;;;8.78;100.00
19520;BME280;9904;52.246;20.898;2024-03-23T07:03:55;99021.91;;;8.68;100.00
19520;BME280;9904;52.246;20.898;2024-03-23T07:06:20;99023.72;;;8.84;100.00
19520;BME280;9904;52.246;20.898;2024-03-23T07:08:46;99016.47;;;8.77;100.00
19520;BME280;9904;52.246;20.898;2024-03-23T07:11:12;99023.91;;;8.75;100.00
19520;BME280;9904;52.246;20.898;2024-03-23T07:13:43;99015.63;;;8.76;100.00
19520;BME280;9904;52.246;20.898;2024-03-23T07:16:08;99009.06;;;8.79;100.00
19520;BME280;9904;52.246;20.898;2024-03-23T07:18:34;99018.00;;;8.79;100.00
19520;BME280;9904;52.246;20.898;2024-03-23T07:20:59;99012.44;;;8.72;100.00
19520;BME280;9904;52.246;20.898;2024-03-23T07:23:25;99003.16;;;8.67;100.00
19520;BME280;9904;52.246;20.898;2024-03-23T07:25:57;99008.41;;;8.68;100.00
19520;BME280;9904;52.246;20.898;2024-03-23T07:28:23;99007.38;;;8.78;100.00
19520;BME280;9904;52.246;20.898;2024-03-23T07:31:07;99006.16;;;8.80;100.00
19520;BME280;9904;52.246;20.898;2024-03-23T07:33:35;99005.69;;;8.77;100.00
19520;BME280;9904;52.246;20.898;2024-03-23T07:36:01;99001.31;;;8.76;100.00
19520;BME280;9904;52.246;20.898;2024-03-23T07:38:28;98993.72;;;8.79;100.00
19520;BME280;9904;52.246;20.898;2024-03-23T07:41:10;98996.41;;;8.79;100.00
19520;BME280;9904;52.246;20.898;2024-03-23T07:43:37;98991.53;;;8.75;100.00
19520;BME280;9904;52.246;20.898;2024-03-23T07:46:03;98985.47;;;8.72;100.00
19520;BME280;9904;52.246;20.898;2024-03-23T07:48:32;98983.09;;;8.78;100.00
19520;BME280;9904;52.246;20.898;2024-03-23T07:51:05;98974.50;;;8.74;100.00
19520;BME280;9904;52.246;20.898;2024-03-23T07:53:32;98968.09;;;8.75;100.00
19520;BME280;9904;52.246;20.898;2024-03-23T07:55:59;98973.97;;;8.79;100.00
19520;BME280;9904;52.246;20.898;2024-03-23T07:58:26;98968.22;;;8.90;100.00
19520;BME280;9904;52.246;20.898;2024-03-23T08:00:53;98966.53;;;8.97;100.00
19520;BME280;9904;52.246;20.898;2024-03-23T08:03:18;98955.84;;;9.04;100.00
19520;BME280;9904;52.246;20.898;2024-03-23T08:05:44;98960.41;;;9.12;100.00
19520;BME280;9904;52.246;20.898;2024-03-23T08:08:10;98961.19;;;9.20;100.00
19520;BME280;9904;52.246;20.898;2024-03-23T08:10:49;98964.91;;;9.19;100.00
19520;BME280;9904;52.246;20.898;2024-03-23T08:13:15;98952.97;;;9.14;100.00
19520;BME280;9904;52.246;20.898;2024-03-23T08:15:40;98947.22;;;9.09;100.00
19520;BME280;9904;52.246;20.898;2024-03-23T08:18:06;98948.94;;;9.01;100.00
19520;BME280;9904;52.246;20.898;2024-03-23T08:20:32;98954.31;;;9.10;100.00
19520;BME280;9904;52.246;20.898;2024-03-23T08:22:57;98951.94;;;9.15;100.00
19520;BME280;9904;52.246;20.898;2024-03-23T08:25:23;98939.28;;;9.15;100.00
19520;BME280;9904;52.246;20.898;2024-03-23T08:27:48;98938.72;;;9.28;100.00
19520;BME280;9904;52.246;20.898;2024-03-23T08:30:14;98945.38;;;9.49;100.00
19520;BME280;9904;52.246;20.898;2024-03-23T08:32:40;98932.09;;;9.39;100.00
19520;BME280;9904;52.246;20.898;2024-03-23T08:35:06;98911.63;;;9.45;100.00
19520;BME280;9904;52.246;20.898;2024-03-23T08:37:32;98902.22;;;9.64;100.00
19520;BME280;9904;52.246;20.898;2024-03-23T08:39:58;98905.38;;;10.14;100.00
19520;BME280;9904;52.246;20.898;2024-03-23T08:42:23;98901.22;;;10.80;100.00
19520;BME280;9904;52.246;20.898;2024-03-23T08:44:50;98909.72;;;11.06;100.00
19520;BME280;9904;52.246;20.898;2024-03-23T08:47:16;98901.09;;;11.03;100.00
19520;BME280;9904;52.246;20.898;2024-03-23T08:49:41;98878.63;;;10.87;100.00
19520;BME280;9904;52.246;20.898;2024-03-23T08:52:08;98896.16;;;11.06;100.00
19520;BME280;9904;52.246;20.898;2024-03-23T08:54:33;98888.47;;;11.25;100.00
19520;BME280;9904;52.246;20.898;2024-03-23T08:57:00;98883.81;;;11.04;100.00
19520;BME280;9904;52.246;20.898;2024-03-23T08:59:25;98885.13;;;10.93;100.00
19520;BME280;9904;52.246;20.898;2024-03-23T09:01:52;98877.78;;;11.02;100.00
19520;BME280;9904;52.246;20.898;2024-03-23T09:04:17;98871.22;;;10.96;100.00
19520;BME280;9904;52.246;20.898;2024-03-23T09:06:43;98865.06;;;11.02;100.00
19520;BME280;9904;52.246;20.898;2024-03-23T09:09:09;98862.13;;;11.19;100.00
19520;BME280;9904;52.246;20.898;2024-03-23T09:11:34;98857.94;;;11.16;100.00
19520;BME280;9904;52.246;20.898;2024-03-23T09:14:00;98857.09;;;11.16;100.00
19520;BME280;9904;52.246;20.898;2024-03-23T09:16:26;98838.31;;;11.51;98.51
19520;BME280;9904;52.246;20.898;2024-03-23T09:18:52;98841.78;;;12.10;96.11
19520;BME280;9904;52.246;20.898;2024-03-23T09:21:18;98839.41;;;12.28;93.17
19520;BME280;9904;52.246;20.898;2024-03-23T09:23:44;98833.09;;;12.21;92.53
19520;BME280;9904;52.246;20.898;2024-03-23T09:26:10;98815.03;;;12.07;94.01
19520;BME280;9904;52.246;20.898;2024-03-23T09:28:36;98823.47;;;12.18;92.52
19520;BME280;9904;52.246;20.898;2024-03-23T09:31:05;98824.22;;;12.05;93.49
19520;BME280;9904;52.246;20.898;2024-03-23T09:33:33;98817.75;;;12.07;94.24
19520;BME280;9904;52.246;20.898;2024-03-23T09:36:03;98817.22;;;12.18;93.02
19520;BME280;9904;52.246;20.898;2024-03-23T09:38:29;98819.16;;;12.24;93.47
19520;BME280;9904;52.246;20.898;2024-03-23T09:40:54;98822.06;;;12.23;92.87
19520;BME280;9904;52.246;20.898;2024-03-23T09:43:20;98820.19;;;12.23;92.98
19520;BME280;9904;52.246;20.898;2024-03-23T09:45:46;98811.31;;;12.08;92.77
19520;BME280;9904;52.246;20.898;2024-03-23T09:48:12;98798.47;;;12.23;92.90
19520;BME280;9904;52.246;20.898;2024-03-23T09:50:45;98800.13;;;12.52;91.63
19520;BME280;9904;52.246;20.898;2024-03-23T09:53:12;98786.06;;;12.84;88.97
19520;BME280;9904;52.246;20.898;2024-03-23T09:55:39;98771.28;;;13.07;87.54
19520;BME280;9904;52.246;20.898;2024-03-23T09:58:05;98777.75;;;13.06;87.03
19520;BME280;9904;52.246;20.898;2024-03-23T10:00:32;98768.97;;;13.04;86.20
19520;BME280;9904;52.246;20.898;2024-03-23T10:03:01;98756.00;;;12.92;86.09
19520;BME280;9904;52.246;20.898;2024-03-23T10:05:30;98757.94;;;13.12;87.05
19520;BME280;9904;52.246;20.898;2024-03-23T10:08:18;98738.41;;;12.81;86.50
19520;BME280;9904;52.246;20.898;2024-03-23T10:10:45;98723.88;;;13.16;85.76
19520;BME280;9904;52.246;20.898;2024-03-23T10:13:23;98724.72;;;13.23;85.40
19520;BME280;9904;52.246;20.898;2024-03-23T10:15:55;98715.34;;;13.53;83.69
19520;BME280;9904;52.246;20.898;2024-03-23T10:18:22;98705.53;;;13.85;81.95
19520;BME280;9904;52.246;20.898;2024-03-23T10:23:35;98690.84;;;13.93;78.90
19520;BME280;9904;52.246;20.898;2024-03-23T10:26:27;98689.53;;;14.09;78.41
19520;BME280;9904;52.246;20.898;2024-03-23T10:29:02;98687.91;;;14.08;76.30
19520;BME280;9904;52.246;20.898;2024-03-23T10:31:34;98683.06;;;14.10;76.63
19520;BME280;9904;52.246;20.898;2024-03-23T10:34:03;98676.97;;;14.21;75.82
19520;BME280;9904;52.246;20.898;2024-03-23T10:36:30;98666.97;;;14.08;77.00
19520;BME280;9904;52.246;20.898;2024-03-23T10:38:56;98664.41;;;14.20;76.95
19520;BME280;9904;52.246;20.898;2024-03-23T10:41:29;98657.22;;;14.39;75.38
19520;BME280;9904;52.246;20.898;2024-03-23T10:43:57;98648.19;;;14.46;74.60
19520;BME280;9904;52.246;20.898;2024-03-23T10:46:23;98655.03;;;14.55;73.57
19520;BME280;9904;52.246;20.898;2024-03-23T10:48:49;98652.66;;;14.65;73.37
19520;BME280;9904;52.246;20.898;2024-03-23T10:51:15;98641.59;;;14.60;72.80
19520;BME280;9904;52.246;20.898;2024-03-23T10:53:41;98649.13;;;14.26;71.94
19520;BME280;9904;52.246;20.898;2024-03-23T10:56:09;98631.34;;;14.23;72.22
19520;BME280;9904;52.246;20.898;2024-03-23T10:58:43;98613.75;;;14.58;72.15
19520;BME280;9904;52.246;20.898;2024-03-23T11:01:13;98605.56;;;14.71;71.62
19520;BME280;9904;52.246;20.898;2024-03-23T11:03:44;98604.31;;;14.67;70.92
19520;BME280;9904;52.246;20.898;2024-03-23T11:06:10;98604.00;;;14.82;69.65
19520;BME280;9904;52.246;20.898;2024-03-23T11:08:37;98604.56;;;14.91;70.77
19520;BME280;9904;52.246;20.898;2024-03-23T11:11:19;98614.59;;;15.23;70.05
19520;BME280;9904;52.246;20.898;2024-03-23T11:13:49;98605.06;;;15.07;69.15
19520;BME280;9904;52.246;20.898;2024-03-23T11:16:23;98603.91;;;15.21;69.01
19520;BME280;9904;52.246;20.898;2024-03-23T11:18:50;98595.31;;;15.43;69.33
19520;BME280;9904;52.246;20.898;2024-03-23T11:21:54;98595.22;;;15.75;67.67
19520;BME280;9904;52.246;20.898;2024-03-23T11:24:20;98595.06;;;15.69;66.21
19520;BME280;9904;52.246;20.898;2024-03-23T11:26:48;98585.88;;;15.64;64.72
19520;BME280;9904;52.246;20.898;2024-03-23T11:29:15;98581.06;;;15.84;64.58
19520;BME280;9904;52.246;20.898;2024-03-23T11:31:48;98574.16;;;15.63;63.81
19520;BME280;9904;52.246;20.898;2024-03-23T11:34:15;98577.09;;;15.80;64.61
19520;BME280;9904;52.246;20.898;2024-03-23T11:36:41;98570.59;;;15.81;64.09
19520;BME280;9904;52.246;20.898;2024-03-23T11:39:14;98554.91;;;15.77;63.86
19520;BME280;9904;52.246;20.898;2024-03-23T11:41:49;98554.66;;;15.60;62.64
19520;BME280;9904;52.246;20.898;2024-03-23T11:44:27;98556.56;;;15.78;60.73
19520;BME280;9904;52.246;20.898;2024-03-23T11:46:53;98542.06;;;15.84;60.38
19520;BME280;9904;52.246;20.898;2024-03-23T11:49:22;98534.38;;;15.93;60.21
19520;BME280;9904;52.246;20.898;2024-03-23T11:51:48;98535.34;;;15.80;60.93
19520;BME280;9904;52.246;20.898;2024-03-23T11:54:14;98537.41;;;15.84;61.49
19520;BME280;9904;52.246;20.898;2024-03-23T11:56:40;98528.00;;;15.62;62.71
19520;BME280;9904;52.246;20.898;2024-03-23T11:59:08;98523.91;;;15.52;63.65
19520;BME280;9904;52.246;20.898;2024-03-23T12:01:34;98515.88;;;15.58;62.55
19520;BME280;9904;52.246;20.898;2024-03-23T12:03:59;98516.88;;;15.63;61.48
19520;BME280;9904;52.246;20.898;2024-03-23T12:06:25;98505.50;;;15.66;60.47
19520;BME280;9904;52.246;20.898;2024-03-23T12:08:51;98506.78;;;16.01;60.00
19520;BME280;9904;52.246;20.898;2024-03-23T12:11:17;98509.94;;;16.16;58.86
19520;BME280;9904;52.246;20.898;2024-03-23T12:13:44;98488.84;;;16.05;60.29
19520;BME280;9904;52.246;20.898;2024-03-23T12:18:38;98489.41;;;15.95;60.83
19520;BME280;9904;52.246;20.898;2024-03-23T12:21:05;98488.28;;;16.03;60.33
19520;BME280;9904;52.246;20.898;2024-03-23T12:23:31;98475.56;;;15.97;59.21
19520;BME280;9904;52.246;20.898;2024-03-23T12:25:57;98483.28;;;15.81;59.51
19520;BME280;9904;52.246;20.898;2024-03-23T12:28:23;98477.66;;;15.76;59.80
19520;BME280;9904;52.246;20.898;2024-03-23T12:30:49;98472.38;;;15.63;59.85
19520;BME280;9904;52.246;20.898;2024-03-23T12:33:14;98463.16;;;15.64;59.36
19520;BME280;9904;52.246;20.898;2024-03-23T12:35:40;98467.78;;;15.45;60.29
19520;BME280;9904;52.246;20.898;2024-03-23T12:38:06;98465.19;;;15.13;62.38
19520;BME280;9904;52.246;20.898;2024-03-23T12:40:32;98457.47;;;15.28;61.57
19520;BME280;9904;52.246;20.898;2024-03-23T12:42:57;98457.41;;;15.35;62.15
19520;BME280;9904;52.246;20.898;2024-03-23T12:45:23;98456.41;;;15.11;62.59
19520;BME280;9904;52.246;20.898;2024-03-23T12:47:49;98449.69;;;15.13;62.15
19520;BME280;9904;52.246;20.898;2024-03-23T12:50:15;98442.41;;;15.07;62.75
19520;BME280;9904;52.246;20.898;2024-03-23T12:52:40;98443.72;;;15.23;63.04
19520;BME280;9904;52.246;20.898;2024-03-23T12:55:07;98437.66;;;15.21;64.72
19520;BME280;9904;52.246;20.898;2024-03-23T12:57:32;98427.91;;;15.13;65.97
19520;BME280;9904;52.246;20.898;2024-03-23T12:59:59;98421.88;;;14.86;67.16
19520;BME280;9904;52.246;20.898;2024-03-23T13:02:24;98419.47;;;14.96;65.46
19520;BME280;9904;52.246;20.898;2024-03-23T13:04:51;98395.16;;;14.95;64.28
19520;BME280;9904;52.246;20.898;2024-03-23T13:07:18;98401.31;;;15.09;63.41
19520;BME280;9904;52.246;20.898;2024-03-23T13:09:44;98394.41;;;14.87;64.38
19520;BME280;9904;52.246;20.898;2024-03-23T13:12:10;98382.91;;;14.85;64.93
19520;BME280;9904;52.246;20.898;2024-03-23T13:14:38;98381.41;;;15.08;63.69
19520;BME280;9904;52.246;20.898;2024-03-23T13:17:04;98384.66;;;15.17;63.06
19520;BME280;9904;52.246;20.898;2024-03-23T13:19:30;98386.16;;;15.13;63.17
19520;BME280;9904;52.246;20.898;2024-03-23T13:21:59;98379.03;;;15.12;63.12
19520;BME280;9904;52.246;20.898;2024-03-23T13:24:26;98374.13;;;15.02;63.80
19520;BME280;9904;52.246;20.898;2024-03-23T13:26:52;98371.28;;;14.97;63.90
19520;BME280;9904;52.246;20.898;2024-03-23T13:29:18;98359.63;;;14.89;64.76
19520;BME280;9904;52.246;20.898;2024-03-23T13:31:45;98356.34;;;14.99;65.81
19520;BME280;9904;52.246;20.898;2024-03-23T13:34:10;98347.50;;;15.04;65.93
19520;BME280;9904;52.246;20.898;2024-03-23T13:36:36;98337.81;;;14.89;66.39
19520;BME280;9904;52.246;20.898;2024-03-23T13:39:03;98328.03;;;14.82;66.97
19520;BME280;9904;52.246;20.898;2024-03-23T13:41:45;98327.06;;;14.95;66.95
19520;BME280;9904;52.246;20.898;2024-03-23T13:44:12;98322.38;;;15.02;66.82
19520;BME280;9904;52.246;20.898;2024-03-23T13:46:39;98317.28;;;15.05;66.36
19520;BME280;9904;52.246;20.898;2024-03-23T13:49:06;98317.97;;;15.01;66.19
19520;BME280;9904;52.246;20.898;2024-03-23T13:51:32;98313.00;;;14.98;66.43
19520;BME280;9904;52.246;20.898;2024-03-23T13:53:58;98305.13;;;14.89;66.65
19520;BME280;9904;52.246;20.898;2024-03-23T13:56:27;98319.19;;;14.86;66.41
19520;BME280;9904;52.246;20.898;2024-03-23T13:58:55;98318.81;;;14.83;66.22